createdAt,value
2022-08-11T00:01:21.982Z,68.80
2022-08-11T00:04:08.120Z,68.90
2022-08-11T00:06:55.570Z,69.00
2022-08-11T00:09:42.422Z,69.20
2022-08-11T00:12:29.575Z,69.30
2022-08-11T00:15:16.114Z,69.50
2022-08-11T00:18:03.439Z,69.80
2022-08-11T00:20:51.117Z,69.70
2022-08-11T00:23:46.490Z,69.50
2022-08-11T00:26:34.357Z,69.70
2022-08-11T00:29:21.846Z,69.90
2022-08-11T00:32:14.998Z,69.90
2022-08-11T00:35:53.848Z,70.10
2022-08-11T00:38:08.952Z,70.00
2022-08-11T00:41:32.559Z,70.20
2022-08-11T00:44:40.605Z,70.20
2022-08-11T00:47:35.677Z,70.20
2022-08-11T00:50:36.554Z,70.30
2022-08-11T00:53:54.054Z,70.40
2022-08-11T00:56:58.852Z,70.30
2022-08-11T00:59:48.096Z,70.40
2022-08-11T01:02:45.897Z,70.50
2022-08-11T01:05:57.113Z,70.30
2022-08-11T01:09:17.917Z,70.80
2022-08-11T01:12:20.442Z,70.50
2022-08-11T01:15:33.169Z,70.80
2022-08-11T01:18:41.663Z,70.90
2022-08-11T01:21:39.698Z,70.60
2022-08-11T01:25:01.129Z,70.90
2022-08-11T01:28:08.921Z,71.20
2022-08-11T01:31:23.821Z,71.20
2022-08-11T01:34:16.130Z,71.30
2022-08-11T01:38:00.553Z,71.40
2022-08-11T01:41:07.417Z,71.80
2022-08-11T01:44:34.311Z,71.80
2022-08-11T01:47:53.391Z,71.90
2022-08-11T01:50:43.074Z,71.90
2022-08-11T01:53:37.358Z,72.10
2022-08-11T01:56:57.094Z,72.40
2022-08-11T01:59:50.816Z,72.40
2022-08-11T02:03:14.545Z,72.60
2022-08-11T02:06:24.537Z,72.70
2022-08-11T02:09:17.930Z,72.90
2022-08-11T02:12:35.850Z,73.00
2022-08-11T02:15:34.440Z,73.00
2022-08-11T02:18:53.013Z,73.20
2022-08-11T02:22:19.203Z,73.30
2022-08-11T02:25:20.529Z,73.40
2022-08-11T02:28:17.293Z,73.60
2022-08-11T02:32:14.206Z,73.70
2022-08-11T02:34:59.472Z,73.80
2022-08-11T02:38:09.818Z,73.80
2022-08-11T02:41:58.114Z,74.40
2022-08-11T02:45:02.308Z,74.20
2022-08-11T02:48:13.237Z,74.60
2022-08-11T02:51:31.593Z,74.80
2022-08-11T02:54:32.012Z,75.00
2022-08-11T02:57:47.430Z,75.00
2022-08-11T03:00:57.226Z,75.20
2022-08-11T03:03:53.358Z,75.30
2022-08-11T03:06:50.476Z,75.60
2022-08-11T03:09:55.283Z,75.50
2022-08-11T03:13:21.557Z,75.60
2022-08-11T03:16:35.905Z,75.60
2022-08-11T03:19:24.831Z,75.80
2022-08-11T03:22:34.914Z,75.70
2022-08-11T03:25:50.115Z,75.90
2022-08-11T03:28:42.427Z,75.90
2022-08-11T03:31:49.813Z,76.00
2022-08-11T03:34:39.120Z,76.40
2022-08-11T03:37:51.795Z,76.30
2022-08-11T03:42:02.610Z,76.30
2022-08-11T03:44:42.670Z,76.70
2022-08-11T03:47:37.679Z,76.70
2022-08-11T03:50:26.784Z,76.90
2022-08-11T03:53:43.804Z,77.20
2022-08-11T03:57:08.999Z,77.50
2022-08-11T04:00:44.483Z,77.70
2022-08-11T04:04:04.033Z,77.80
2022-08-11T04:06:52.665Z,77.80
2022-08-11T04:09:46.457Z,77.70
2022-08-11T04:12:51.212Z,77.70
2022-08-11T04:16:11.019Z,77.60
2022-08-11T04:19:15.751Z,77.60
2022-08-11T04:22:20.673Z,77.80
2022-08-11T04:25:29.057Z,77.80
2022-08-11T04:28:33.735Z,78.10
2022-08-11T04:31:50.424Z,78.40
2022-08-11T04:34:42.610Z,78.60
2022-08-11T04:37:39.427Z,78.60
2022-08-11T04:40:34.757Z,78.50
2022-08-11T04:44:02.679Z,78.50
2022-08-11T04:48:01.923Z,78.60
2022-08-11T04:51:22.421Z,78.70
2022-08-11T04:54:36.013Z,78.80
2022-08-11T04:58:14.919Z,78.80
2022-08-11T05:01:41.352Z,78.90
2022-08-11T05:04:48.982Z,79.00
2022-08-11T05:08:12.385Z,79.30
2022-08-11T05:12:01.504Z,79.40
2022-08-11T05:15:11.334Z,79.30
2022-08-11T05:18:34.767Z,79.60
2022-08-11T05:21:45.124Z,78.90
2022-08-11T05:25:08.781Z,78.40
2022-08-11T05:28:36.758Z,78.30
2022-08-11T05:31:53.463Z,78.20
2022-08-11T05:34:54.002Z,78.20
2022-08-11T05:38:04.552Z,78.30
2022-08-11T05:41:12.598Z,78.10
2022-08-11T05:44:19.932Z,78.00
2022-08-11T05:47:28.362Z,77.60
2022-08-11T05:50:37.266Z,77.50
2022-08-11T05:53:46.363Z,77.60
2022-08-11T05:56:34.791Z,77.70
2022-08-11T05:59:23.309Z,77.10
2022-08-11T06:02:09.781Z,77.20
2022-08-11T06:04:58.574Z,76.50
2022-08-11T06:07:48.705Z,76.00
2022-08-11T06:10:38.199Z,75.90
2022-08-11T06:13:25.071Z,75.70
2022-08-11T06:16:11.878Z,75.40
2022-08-11T06:18:58.723Z,75.10
2022-08-11T06:21:45.301Z,74.70
2022-08-11T06:24:32.958Z,74.50
2022-08-11T06:27:22.362Z,74.40
2022-08-11T06:30:14.013Z,74.40
2022-08-11T06:33:01.624Z,74.40
2022-08-11T06:35:59.523Z,75.30
2022-08-11T06:38:51.278Z,74.90
2022-08-11T06:41:53.234Z,74.60
2022-08-11T06:45:05.377Z,74.10
2022-08-11T06:47:52.648Z,74.40
2022-08-11T06:50:57.508Z,74.10
2022-08-11T06:54:04.469Z,73.90
2022-08-11T06:57:29.842Z,73.60
2022-08-11T07:00:29.138Z,73.90
2022-08-11T07:03:20.052Z,73.80
2022-08-11T07:06:41.552Z,73.30
2022-08-11T07:10:15.233Z,73.20
2022-08-11T07:13:44.760Z,73.40
2022-08-11T07:16:30.933Z,73.00
2022-08-11T07:19:47.025Z,72.50
2022-08-11T07:23:10.298Z,72.60
2022-08-11T07:26:18.217Z,72.10
2022-08-11T07:29:06.532Z,72.10
2022-08-11T07:31:54.015Z,71.30
2022-08-11T07:34:48.266Z,69.70
2022-08-11T07:37:35.601Z,69.80
2022-08-11T07:40:26.125Z,69.60
2022-08-11T07:43:13.517Z,69.40
2022-08-11T07:46:22.110Z,68.90
2022-08-11T07:49:28.947Z,69.50
2022-08-11T07:52:33.966Z,68.70
2022-08-11T07:55:26.326Z,69.40
2022-08-11T07:58:53.189Z,67.70
2022-08-11T08:02:00.459Z,68.30
2022-08-11T08:05:05.927Z,67.70
2022-08-11T08:08:10.574Z,68.00
2022-08-11T08:11:16.752Z,68.10
2022-08-11T08:14:21.675Z,67.50
2022-08-11T08:17:27.135Z,67.00
2022-08-11T08:20:16.433Z,66.80
2022-08-11T08:23:04.485Z,66.90
2022-08-11T08:25:52.582Z,67.30
2022-08-11T08:28:39.954Z,66.90
2022-08-11T08:31:26.457Z,66.90
2022-08-11T08:34:13.830Z,66.00
2022-08-11T08:37:00.590Z,65.80
2022-08-11T08:39:47.746Z,66.00
2022-08-11T08:42:44.995Z,65.60
2022-08-11T08:45:37.733Z,66.00
2022-08-11T08:48:26.016Z,65.50
2022-08-11T08:51:58.657Z,65.60
2022-08-11T08:54:42.110Z,64.80
2022-08-11T08:57:31.039Z,64.40
2022-08-11T09:00:29.882Z,64.20
2022-08-11T09:03:41.020Z,64.70
2022-08-11T09:06:22.842Z,64.30
2022-08-11T09:09:12.131Z,64.00
2022-08-11T09:11:58.532Z,64.20
2022-08-11T09:15:05.574Z,63.10
2022-08-11T09:18:01.404Z,63.20
2022-08-11T09:20:47.778Z,62.60
2022-08-11T09:24:13.057Z,62.70
2022-08-11T09:27:02.949Z,62.20
2022-08-11T09:29:50.125Z,61.90
2022-08-11T09:32:38.590Z,61.50
2022-08-11T09:35:30.994Z,61.20
2022-08-11T09:38:38.020Z,61.00
2022-08-11T09:41:25.667Z,60.20
2022-08-11T09:44:31.138Z,59.60
2022-08-11T09:47:26.256Z,58.80
2022-08-11T09:50:16.495Z,58.20
2022-08-11T09:53:34.898Z,58.40
2022-08-11T09:56:36.159Z,58.80
2022-08-11T09:59:23.111Z,57.00
2022-08-11T10:02:10.613Z,56.40
2022-08-11T10:05:16.853Z,56.20
2022-08-11T10:08:04.623Z,55.10
2022-08-11T10:10:50.954Z,55.60
2022-08-11T10:14:32.632Z,54.80
2022-08-11T10:17:10.395Z,55.50
2022-08-11T10:20:04.401Z,54.90
2022-08-11T10:23:10.836Z,54.60
2022-08-11T10:26:17.403Z,53.70
2022-08-11T10:29:25.340Z,53.10
2022-08-11T10:32:57.634Z,53.00
2022-08-11T10:35:45.926Z,53.10
2022-08-11T10:38:31.974Z,52.90
2022-08-11T10:41:37.998Z,52.30
2022-08-11T10:44:50.530Z,52.70
2022-08-11T10:47:38.319Z,52.50
2022-08-11T10:50:50.062Z,51.80
2022-08-11T10:54:03.565Z,51.70
2022-08-11T10:57:08.118Z,52.10
2022-08-11T10:59:55.105Z,52.00
2022-08-11T11:02:43.313Z,51.80
2022-08-11T11:05:31.441Z,51.40
2022-08-11T11:08:43.766Z,51.20
2022-08-11T11:11:54.591Z,51.50
2022-08-11T11:15:01.693Z,51.80
2022-08-11T11:18:07.489Z,51.40
2022-08-11T11:21:18.620Z,52.00
2022-08-11T11:24:39.948Z,51.10
2022-08-11T11:27:46.651Z,50.80
2022-08-11T11:30:48.350Z,50.50
2022-08-11T11:33:34.737Z,51.40
2022-08-11T11:36:55.034Z,52.10
2022-08-11T11:39:41.725Z,51.70
2022-08-11T11:42:29.629Z,51.80
2022-08-11T11:45:22.805Z,52.20
2022-08-11T11:48:12.157Z,52.40
2022-08-11T11:50:59.592Z,51.60
2022-08-11T11:53:47.078Z,51.60
2022-08-11T11:56:33.957Z,51.20
2022-08-11T11:59:40.883Z,51.00
2022-08-11T12:02:28.188Z,51.10
2022-08-11T12:05:15.214Z,51.40
2022-08-11T12:08:31.245Z,50.80
2022-08-11T12:11:39.884Z,51.10
2022-08-11T12:14:28.638Z,51.60
2022-08-11T12:17:15.201Z,51.30
2022-08-11T12:20:01.834Z,51.50
2022-08-11T12:23:08.025Z,50.80
2022-08-11T12:26:28.186Z,51.40
2022-08-11T12:29:16.650Z,50.90
2022-08-11T12:32:08.347Z,50.80
2022-08-11T12:34:56.855Z,50.60
2022-08-11T12:37:48.207Z,51.10
2022-08-11T12:41:15.620Z,50.90
2022-08-11T12:44:41.478Z,51.10
2022-08-11T12:48:45.369Z,50.40
2022-08-11T12:51:24.645Z,50.70
2022-08-11T12:54:37.118Z,50.30
2022-08-11T12:57:54.994Z,50.10
2022-08-11T13:00:59.534Z,50.40
2022-08-11T13:04:04.116Z,50.00
2022-08-11T13:06:52.321Z,50.80
2022-08-11T13:09:38.537Z,49.40
2022-08-11T13:12:43.889Z,49.00
2022-08-11T13:15:31.706Z,49.20
2022-08-11T13:18:23.294Z,49.50
2022-08-11T13:21:20.787Z,49.30
2022-08-11T13:24:07.623Z,49.70
2022-08-11T13:26:54.035Z,49.40
2022-08-11T13:29:43.027Z,49.40
2022-08-11T13:32:29.666Z,48.90
2022-08-11T13:35:16.585Z,49.40
2022-08-11T13:38:19.314Z,49.50
2022-08-11T13:41:29.500Z,49.30
2022-08-11T13:44:21.842Z,48.20
2022-08-11T13:47:13.620Z,48.50
2022-08-11T13:50:00.603Z,48.50
2022-08-11T13:52:49.005Z,49.20
2022-08-11T13:55:51.035Z,48.00
2022-08-11T13:58:39.879Z,47.80
2022-08-11T14:02:03.554Z,48.00
2022-08-11T14:04:58.907Z,48.20
2022-08-11T14:08:07.068Z,48.30
2022-08-11T14:12:19.800Z,48.00
2022-08-11T14:14:24.967Z,48.00
2022-08-11T14:17:12.326Z,48.70
2022-08-11T14:20:39.012Z,48.00
2022-08-11T14:23:33.082Z,48.00
2022-08-11T14:26:28.493Z,48.00
2022-08-11T14:29:17.057Z,48.50
2022-08-11T14:32:06.525Z,48.90
2022-08-11T14:34:53.323Z,48.80
2022-08-11T14:37:40.569Z,48.80
2022-08-11T14:40:45.438Z,47.90
2022-08-11T14:44:13.607Z,47.60
2022-08-11T14:47:24.210Z,47.80
2022-08-11T14:50:26.118Z,47.00
2022-08-11T14:53:31.648Z,47.80
2022-08-11T14:56:38.677Z,48.20
2022-08-11T14:59:25.377Z,48.00
2022-08-11T15:02:31.290Z,47.90
2022-08-11T15:05:19.198Z,48.30
2022-08-11T15:08:06.927Z,47.90
2022-08-11T15:10:52.962Z,47.50
2022-08-11T15:13:40.302Z,47.60
2022-08-11T15:16:47.082Z,48.00
2022-08-11T15:19:40.366Z,47.30
2022-08-11T15:22:46.287Z,47.80
2022-08-11T15:25:34.566Z,47.40
2022-08-11T15:28:41.814Z,47.70
2022-08-11T15:31:49.930Z,47.10
2022-08-11T15:34:55.498Z,46.90
2022-08-11T15:37:44.355Z,46.90
2022-08-11T15:40:58.764Z,46.80
2022-08-11T15:44:10.018Z,46.80
2022-08-11T15:47:01.549Z,47.00
2022-08-11T15:50:11.212Z,47.10
2022-08-11T15:53:25.852Z,47.10
2022-08-11T15:56:13.406Z,46.80
2022-08-11T15:59:42.423Z,46.80
2022-08-11T16:02:47.070Z,46.70
2022-08-11T16:05:46.358Z,46.80
2022-08-11T16:08:40.524Z,47.30
2022-08-11T16:11:28.490Z,47.40
2022-08-11T16:14:52.883Z,47.60
2022-08-11T16:17:45.696Z,47.70
2022-08-11T16:20:33.606Z,48.70
2022-08-11T16:23:20.115Z,48.60
2022-08-11T16:27:10.648Z,48.60
2022-08-11T16:29:13.617Z,48.60
2022-08-11T16:32:20.363Z,48.90
2022-08-11T16:35:34.828Z,49.10
2022-08-11T16:38:35.838Z,49.30
2022-08-11T16:41:43.367Z,49.30
2022-08-11T16:44:49.394Z,49.10
2022-08-11T16:48:02.297Z,48.90
2022-08-11T16:50:42.745Z,48.80
2022-08-11T16:54:00.149Z,49.00
2022-08-11T16:56:54.146Z,49.00
2022-08-11T16:59:40.371Z,48.80
2022-08-11T17:02:53.223Z,48.70
2022-08-11T17:06:03.416Z,48.30
2022-08-11T17:09:11.009Z,48.50
2022-08-11T17:12:16.763Z,47.90
2022-08-11T17:15:26.529Z,48.10
2022-08-11T17:18:35.922Z,48.00
2022-08-11T17:21:29.885Z,48.00
2022-08-11T17:24:17.629Z,47.80
2022-08-11T17:27:07.533Z,47.50
2022-08-11T17:29:58.066Z,47.80
2022-08-11T17:33:07.693Z,48.10
2022-08-11T17:35:54.337Z,48.20
2022-08-11T17:38:41.107Z,47.80
2022-08-11T17:41:45.759Z,48.00
2022-08-11T17:44:51.634Z,48.20
2022-08-11T17:47:57.602Z,48.10
2022-08-11T17:50:44.201Z,48.10
2022-08-11T17:54:13.444Z,48.60
2022-08-11T17:57:19.962Z,48.90
2022-08-11T18:00:08.818Z,49.00
2022-08-11T18:03:20.126Z,49.40
2022-08-11T18:06:13.241Z,49.70
2022-08-11T18:09:19.589Z,49.80
2022-08-11T18:12:26.115Z,50.00
2022-08-11T18:15:32.022Z,50.20
2022-08-11T18:18:36.591Z,50.30
2022-08-11T18:21:42.642Z,50.40
2022-08-11T18:24:51.572Z,50.20
2022-08-11T18:27:58.965Z,50.40
2022-08-11T18:31:10.868Z,50.50
2022-08-11T18:34:22.879Z,50.60
2022-08-11T18:37:33.945Z,50.80
2022-08-11T18:40:42.636Z,51.20
2022-08-11T18:43:48.197Z,51.60
2022-08-11T18:46:56.849Z,51.70
2022-08-11T18:50:05.187Z,51.80
2022-08-11T18:53:12.469Z,51.90
2022-08-11T18:56:18.296Z,52.20
2022-08-11T18:59:25.322Z,52.50
2022-08-11T19:02:31.932Z,52.60
2022-08-11T19:06:06.036Z,52.80
2022-08-11T19:09:26.210Z,53.10
2022-08-11T19:12:32.328Z,53.30
2022-08-11T19:15:38.372Z,53.60
2022-08-11T19:18:43.829Z,53.70
2022-08-11T19:21:49.326Z,53.90
2022-08-11T19:24:57.585Z,54.10
2022-08-11T19:28:06.568Z,54.10
2022-08-11T19:31:13.015Z,54.40
2022-08-11T19:34:19.022Z,54.60
2022-08-11T19:37:25.742Z,54.80
2022-08-11T19:40:31.402Z,55.00
2022-08-11T19:43:38.999Z,55.20
2022-08-11T19:46:43.970Z,55.50
2022-08-11T19:49:49.717Z,55.60
2022-08-11T19:52:56.864Z,55.80
2022-08-11T19:56:01.790Z,55.90
2022-08-11T19:59:07.029Z,56.10
2022-08-11T20:02:14.426Z,56.40
2022-08-11T20:05:19.596Z,56.80
2022-08-11T20:08:25.577Z,56.90
2022-08-11T20:11:32.843Z,57.30
2022-08-11T20:14:39.666Z,57.50
2022-08-11T20:17:47.779Z,57.90
2022-08-11T20:20:53.254Z,58.10
2022-08-11T20:24:01.452Z,58.00
2022-08-11T20:27:07.281Z,58.20
2022-08-11T20:30:30.437Z,57.70
2022-08-11T20:33:36.093Z,57.60
2022-08-11T20:36:40.628Z,57.50
2022-08-11T20:39:47.345Z,57.60
2022-08-11T20:42:53.984Z,58.00
2022-08-11T20:45:59.439Z,57.90
2022-08-11T20:49:05.141Z,58.00
2022-08-11T20:52:10.542Z,58.30
2022-08-11T20:55:19.077Z,58.30
2022-08-11T20:59:02.369Z,58.30
2022-08-11T21:01:58.385Z,58.70
2022-08-11T21:05:07.991Z,58.80
2022-08-11T21:08:19.989Z,58.80
2022-08-11T21:11:33.198Z,58.70
2022-08-11T21:14:40.195Z,58.80
2022-08-11T21:18:00.839Z,59.20
2022-08-11T21:21:16.554Z,59.30
2022-08-11T21:24:23.888Z,59.60
2022-08-11T21:27:38.949Z,59.60
2022-08-11T21:30:46.887Z,59.80
2022-08-11T21:33:51.909Z,59.90
2022-08-11T21:36:58.721Z,60.00
2022-08-11T21:40:05.529Z,60.10
2022-08-11T21:43:12.480Z,60.40
2022-08-11T21:46:18.677Z,60.70
2022-08-11T21:49:25.505Z,60.80
2022-08-11T21:52:29.892Z,61.10
2022-08-11T21:55:35.317Z,61.40
2022-08-11T21:58:40.318Z,61.90
2022-08-11T22:01:47.230Z,62.70
2022-08-11T22:04:52.610Z,62.70
2022-08-11T22:07:58.902Z,63.40
2022-08-11T22:11:03.334Z,63.20
2022-08-11T22:14:08.375Z,63.70
2022-08-11T22:17:13.122Z,64.00
2022-08-11T22:20:19.030Z,64.60
2022-08-11T22:23:25.244Z,65.10
2022-08-11T22:26:41.643Z,65.20
2022-08-11T22:29:51.255Z,64.90
2022-08-11T22:32:57.209Z,64.80
2022-08-11T22:36:03.957Z,64.60
2022-08-11T22:39:09.428Z,64.60
2022-08-11T22:42:14.328Z,64.60
2022-08-11T22:45:19.483Z,64.90
2022-08-11T22:48:25.151Z,65.10
2022-08-11T22:51:31.297Z,65.50
2022-08-11T22:54:36.837Z,65.70
2022-08-11T22:58:00.853Z,66.00
2022-08-11T23:01:06.909Z,66.40
2022-08-11T23:04:15.222Z,66.40
2022-08-11T23:07:49.559Z,66.70
2022-08-11T23:10:46.793Z,66.70
2022-08-11T23:13:52.237Z,67.00
2022-08-11T23:16:57.413Z,66.90
2022-08-11T23:20:12.584Z,66.90
2022-08-11T23:23:28.777Z,67.20
2022-08-11T23:26:35.534Z,67.10
2022-08-11T23:29:39.864Z,67.20
2022-08-11T23:32:45.838Z,67.10
2022-08-11T23:35:57.984Z,67.10
2022-08-11T23:39:05.889Z,67.00
2022-08-11T23:42:10.438Z,67.10
2022-08-11T23:45:17.470Z,66.90
2022-08-11T23:48:25.819Z,66.90
2022-08-11T23:51:40.892Z,67.10
2022-08-11T23:54:47.713Z,67.20
2022-08-11T23:57:53.615Z,67.30
